Latest Weather Observations for Little Bay

IDN60801

Issued at 11:33 pm EST Saturday 25 June 2016 (issued every 30 minutes, with the page automatically refreshed every 10 minutes)

About weather observations | Map of weather stations | Latest weather observations for NSW | Other Formats
Station Details ID: 066051 Name: LITTLE BAY (THE COAST GOLF CLUB) Lat: -33.98 Lon: 151.25 Height: 22.0 m
Data from the previous 72 hours. | See also: Recent months for locations in New South Wales
Date/Time
EST
Temp
°C
App
Temp
°C
Dew
Point
°C
Rel
Hum
%
Delta-T
°C
Wind Press
QNH
hPa
Press
MSL
hPa
Rain since
9am
mm
Dir  Spd
km/h
Gust
km/h
Spd
kts
Gust
kts
25/11:30pm - - - - - W 15 26 8 14 - - -
25/11:00pm - - - - - W 17 24 9 13 - - -
25/10:30pm - - - - - W 17 24 9 13 - - -
25/10:00pm - - - - - WSW 22 32 12 17 - - -
25/09:30pm - - - - - WSW 17 28 9 15 - - -
25/09:00pm - - - - - WSW 20 28 11 15 - - -
25/08:30pm - - - - - WSW 17 28 9 15 - - -
25/08:00pm - - - - - W 17 26 9 14 - - -
25/07:30pm - - - - - WSW 19 26 10 14 - - -
25/07:00pm - - - - - W 11 19 6 10 - - -
25/06:30pm - - - - - WSW 11 20 6 11 - - -
25/06:00pm - - - - - WSW 11 17 6 9 - - -
25/05:30pm - - - - - WSW 9 13 5 7 - - -
25/05:00pm - - - - - SW 9 15 5 8 - - -
25/04:30pm - - - - - SSW 13 20 7 11 - - -
25/04:00pm - - - - - SSW 15 24 8 13 - - -
25/03:30pm - - - - - SSW 19 28 10 15 - - -
25/03:00pm - - - - - SSW 17 24 9 13 - - -
25/02:30pm - - - - - SW 19 28 10 15 - - -
25/02:00pm - - - - - SSW 20 32 11 17 - - -
25/01:30pm - - - - - SW 22 37 12 20 - - -
25/01:00pm - - - - - SSW 22 39 12 21 - - -
25/12:30pm - - - - - SSW 26 39 14 21 - - -
25/12:00pm - - - - - SSW 22 35 12 19 - - -
25/11:30am - - - - - SW 19 32 10 17 - - -
25/11:00am - - - - - WSW 19 28 10 15 - - -
25/10:30am - - - - - WSW 19 28 10 15 - - -
25/10:00am - - - - - WSW 19 30 10 16 - - -
25/09:30am - - - - - WSW 22 33 12 18 - - -
25/09:00am - - - - - WSW 20 32 11 17 - - -
25/08:30am - - - - - WSW 24 43 13 23 - - -
25/08:00am - - - - - WSW 26 39 14 21 - - -
25/07:30am - - - - - WSW 20 39 11 21 - - -
25/07:00am - - - - - WSW 19 30 10 16 - - -
25/06:30am - - - - - WSW 22 39 12 21 - - -
25/06:00am - - - - - WSW 24 39 13 21 - - -
25/05:30am - - - - - WSW 26 39 14 21 - - -
25/05:00am - - - - - W 24 41 13 22 - - -
25/04:30am - - - - - WSW 24 39 13 21 - - -
25/04:00am - - - - - WSW 26 46 14 25 - - -
25/03:30am - - - - - WSW 19 35 10 19 - - -
25/03:00am - - - - - W 20 37 11 20 - - -
25/02:30am - - - - - W 20 32 11 17 - - -
25/02:00am - - - - - WSW 19 30 10 16 - - -
25/01:30am - - - - - WSW 26 41 14 22 - - -
25/01:00am - - - - - WSW 24 41 13 22 - - -
25/12:30am - - - - - WSW 22 35 12 19 - - -
25/12:00am - - - - - W 22 35 12 19 - - -
 
Date/Time
EST
Temp
°C
App
Temp
°C
Dew
Point
°C
Rel
Hum
%
Delta-T
°C
Wind Press
QNH
hPa
Press
MSL
hPa
Rain since
9am
mm
Dir  Spd
km/h
Gust
km/h
Spd
kts
Gust
kts
24/11:30pm - - - - - WSW 20 32 11 17 - - -
24/11:00pm - - - - - WSW 20 37 11 20 - - -
24/10:30pm - - - - - W 26 37 14 20 - - -
24/10:00pm - - - - - W 28 43 15 23 - - -
24/09:30pm - - - - - W 32 52 17 28 - - -
24/09:00pm - - - - - W 28 48 15 26 - - -
24/08:33pm - - - - - W 28 50 15 27 - - -
24/08:30pm - - - - - W 28 44 15 24 - - -
24/08:26pm - - - - - W 28 46 15 25 - - -
24/08:00pm - - - - - W 32 50 17 27 - - -
24/07:34pm - - - - - W 33 54 18 29 - - -
24/07:30pm - - - - - W 33 50 18 27 - - -
24/07:00pm - - - - - W 30 50 16 27 - - -
24/06:34pm - - - - - WSW 28 48 15 26 - - -
24/06:30pm - - - - - W 26 39 14 21 - - -
24/06:00pm - - - - - W 15 24 8 13 - - -
24/05:30pm - - - - - W 22 33 12 18 - - -
24/05:00pm - - - - - WNW 22 39 12 21 - - -
24/04:30pm - - - - - W 20 32 11 17 - - -
24/04:00pm - - - - - WNW 19 35 10 19 - - -
24/03:30pm - - - - - W 22 33 12 18 - - -
24/03:00pm - - - - - W 30 50 16 27 - - -
24/02:49pm - - - - - W 30 48 16 26 - - -
24/02:30pm - - - - - WSW 22 35 12 19 - - -
24/02:00pm - - - - - W 26 39 14 21 - - -
24/01:30pm - - - - - W 24 39 13 21 - - -
24/01:00pm - - - - - W 26 39 14 21 - - -
24/12:36pm - - - - - W 28 46 15 25 - - -
24/12:30pm - - - - - W 22 46 12 25 - - -
24/12:00pm - - - - - WNW 15 30 8 16 - - -
24/11:30am - - - - - W 20 32 11 17 - - -
24/11:00am - - - - - WNW 17 28 9 15 - - -
24/10:30am - - - - - WNW 13 24 7 13 - - -
24/10:00am - - - - - W 15 22 8 12 - - -
24/09:30am - - - - - WSW 19 28 10 15 - - -
24/09:00am - - - - - WNW 9 20 5 11 - - -
24/08:30am - - - - - NW 4 6 2 3 - - -
24/08:00am - - - - - WNW 2 6 1 3 - - -
24/07:30am - - - - - N 4 6 2 3 - - -
24/07:00am - - - - - N 6 9 3 5 - - -
24/06:30am - - - - - NNW 9 17 5 9 - - -
24/06:00am - - - - - NNW 9 17 5 9 - - -
24/05:30am - - - - - N 7 9 4 5 - - -
24/05:00am - - - - - N 6 7 3 4 - - -
24/04:30am - - - - - N 9 13 5 7 - - -
24/04:00am - - - - - N 7 9 4 5 - - -
24/03:30am - - - - - N 11 17 6 9 - - -
24/03:00am - - - - - N 7 13 4 7 - - -
24/02:30am - - - - - N 6 9 3 5 - - -
24/02:00am - - - - - N 13 17 7 9 - - -
24/01:30am - - - - - N 13 24 7 13 - - -
24/01:00am - - - - - N 13 19 7 10 - - -
24/12:30am - - - - - N 15 20 8 11 - - -
24/12:00am - - - - - N 17 24 9 13 - - -
 
Date/Time
EST
Temp
°C
App
Temp
°C
Dew
Point
°C
Rel
Hum
%
Delta-T
°C
Wind Press
QNH
hPa
Press
MSL
hPa
Rain since
9am
mm
Dir  Spd
km/h
Gust
km/h
Spd
kts
Gust
kts
23/11:30pm - - - - - N 13 22 7 12 - - -
23/11:00pm - - - - - N 13 20 7 11 - - -
23/10:30pm - - - - - NNW 11 19 6 10 - - -
23/10:00pm - - - - - N 7 13 4 7 - - -
23/09:30pm - - - - - N 9 15 5 8 - - -
23/09:00pm - - - - - N 11 19 6 10 - - -
23/08:30pm - - - - - N 9 15 5 8 - - -
23/08:00pm - - - - - N 13 20 7 11 - - -
23/07:30pm - - - - - NNW 13 22 7 12 - - -
23/07:00pm - - - - - NNW 13 19 7 10 - - -
23/06:30pm - - - - - NNW 13 22 7 12 - - -
23/06:00pm - - - - - NNW 11 20 6 11 - - -
23/05:30pm - - - - - NNW 11 15 6 8 - - -
23/05:00pm - - - - - NNW 11 19 6 10 - - -
23/04:30pm - - - - - NNW 11 19 6 10 - - -
23/04:00pm - - - - - NNW 13 19 7 10 - - -
23/03:30pm - - - - - NNW 11 17 6 9 - - -
23/03:00pm - - - - - NNW 11 20 6 11 - - -
23/02:30pm - - - - - NW 11 20 6 11 - - -
23/02:00pm - - - - - NW 13 24 7 13 - - -
23/01:30pm - - - - - NW 15 28 8 15 - - -
23/01:00pm - - - - - NNW 15 28 8 15 - - -
23/12:30pm - - - - - NNW 13 19 7 10 - - -
23/12:00pm - - - - - NW 11 19 6 10 - - -
23/11:30am - - - - - NNW 9 17 5 9 - - -
23/11:00am - - - - - NNW 9 13 5 7 - - -
23/10:30am - - - - - WNW 9 15 5 8 - - -
23/10:00am - - - - - W 9 17 5 9 - - -
23/09:30am - - - - - NW 7 11 4 6 - - -
23/09:00am - - - - - NW 7 13 4 7 - - -
23/08:30am - - - - - NW 11 15 6 8 - - -
23/08:00am - - - - - NW 9 13 5 7 - - -
23/07:30am - - - - - NNW 11 17 6 9 - - -
23/07:00am - - - - - NNW 9 13 5 7 - - -
23/06:30am - - - - - NNW 7 9 4 5 - - -
23/06:00am - - - - - NNW 9 11 5 6 - - -
23/05:30am - - - - - NNW 7 11 4 6 - - -
23/05:00am - - - - - NNW 7 11 4 6 - - -
23/04:30am - - - - - N 7 11 4 6 - - -
23/04:00am - - - - - WNW 9 13 5 7 - - -
23/03:30am - - - - - NNW 9 11 5 6 - - -
23/03:00am - - - - - WNW 6 13 3 7 - - -
23/02:30am - - - - - WNW 7 9 4 5 - - -
23/02:00am - - - - - W 9 13 5 7 - - -
23/01:30am - - - - - NW 6 9 3 5 - - -
23/01:00am - - - - - W 11 19 6 10 - - -
23/12:30am - - - - - W 17 24 9 13 - - -
23/12:00am - - - - - W 11 20 6 11 - - -

Other Formats:

Comma delimited format used in spreadsheet applications
http://www.bom.gov.au/fwo/IDN60801/IDN60801.94780.axf

JavaScript Object Notation format (JSON) in row-major order
http://www.bom.gov.au/fwo/IDN60801/IDN60801.94780.json